sensor_id;sensor_type;location;lat;lon;timestamp;temperature;humidity
14172;DHT22;7165;52.388;4.928;2023-03-01T00:01:24;1.00;99.90
14172;DHT22;7165;52.388;4.928;2023-03-01T00:03:51;1.00;99.90
14172;DHT22;7165;52.388;4.928;2023-03-01T00:06:18;1.00;99.90
14172;DHT22;7165;52.388;4.928;2023-03-01T00:08:45;1.00;99.90
14172;DHT22;7165;52.388;4.928;2023-03-01T00:11:14;1.00;99.90
14172;DHT22;7165;52.388;4.928;2023-03-01T00:13:43;1.00;99.90
14172;DHT22;7165;52.388;4.928;2023-03-01T00:16:13;1.00;99.90
14172;DHT22;7165;52.388;4.928;2023-03-01T00:18:40;0.90;99.90
14172;DHT22;7165;52.388;4.928;2023-03-01T00:21:07;0.90;99.90
14172;DHT22;7165;52.388;4.928;2023-03-01T00:23:34;0.90;99.90
14172;DHT22;7165;52.388;4.928;2023-03-01T00:26:01;0.90;99.90
14172;DHT22;7165;52.388;4.928;2023-03-01T00:28:28;0.90;99.90
14172;DHT22;7165;52.388;4.928;2023-03-01T00:30:55;0.90;99.90
14172;DHT22;7165;52.388;4.928;2023-03-01T00:33:23;0.90;99.90
14172;DHT22;7165;52.388;4.928;2023-03-01T00:35:49;0.90;99.90
14172;DHT22;7165;52.388;4.928;2023-03-01T00:38:16;0.90;99.90
14172;DHT22;7165;52.388;4.928;2023-03-01T00:40:43;0.90;99.90
14172;DHT22;7165;52.388;4.928;2023-03-01T00:43:09;1.00;99.90
14172;DHT22;7165;52.388;4.928;2023-03-01T00:45:36;1.00;99.90
14172;DHT22;7165;52.388;4.928;2023-03-01T00:48:03;1.00;99.90
14172;DHT22;7165;52.388;4.928;2023-03-01T00:50:31;1.00;99.90
14172;DHT22;7165;52.388;4.928;2023-03-01T00:52:58;1.00;99.90
14172;DHT22;7165;52.388;4.928;2023-03-01T00:55:25;0.90;99.90
14172;DHT22;7165;52.388;4.928;2023-03-01T00:57:52;0.90;99.90
14172;DHT22;7165;52.388;4.928;2023-03-01T01:00:19;0.80;99.90
14172;DHT22;7165;52.388;4.928;2023-03-01T01:02:46;0.90;99.90
14172;DHT22;7165;52.388;4.928;2023-03-01T01:05:13;0.90;99.90
14172;DHT22;7165;52.388;4.928;2023-03-01T01:07:41;0.90;99.90
14172;DHT22;7165;52.388;4.928;2023-03-01T01:10:10;0.80;99.90
14172;DHT22;7165;52.388;4.928;2023-03-01T01:12:42;0.80;99.90
14172;DHT22;7165;52.388;4.928;2023-03-01T01:15:09;0.80;99.90
14172;DHT22;7165;52.388;4.928;2023-03-01T01:17:38;0.80;99.90
14172;DHT22;7165;52.388;4.928;2023-03-01T01:20:05;0.80;99.90
14172;DHT22;7165;52.388;4.928;2023-03-01T01:22:32;0.70;99.90
14172;DHT22;7165;52.388;4.928;2023-03-01T01:25:00;0.70;99.90
14172;DHT22;7165;52.388;4.928;2023-03-01T01:27:27;0.80;99.90
14172;DHT22;7165;52.388;4.928;2023-03-01T01:29:54;0.70;99.90
14172;DHT22;7165;52.388;4.928;2023-03-01T01:32:20;0.70;99.90
14172;DHT22;7165;52.388;4.928;2023-03-01T01:34:47;0.70;99.90
14172;DHT22;7165;52.388;4.928;2023-03-01T01:37:14;0.70;99.90
14172;DHT22;7165;52.388;4.928;2023-03-01T01:39:41;0.60;99.90
14172;DHT22;7165;52.388;4.928;2023-03-01T01:42:13;0.60;99.90
14172;DHT22;7165;52.388;4.928;2023-03-01T01:44:44;0.60;99.90
14172;DHT22;7165;52.388;4.928;2023-03-01T01:47:14;0.50;99.90
14172;DHT22;7165;52.388;4.928;2023-03-01T01:49:45;0.50;99.90
14172;DHT22;7165;52.388;4.928;2023-03-01T01:52:16;0.50;99.90
14172;DHT22;7165;52.388;4.928;2023-03-01T01:54:46;0.50;99.90
14172;DHT22;7165;52.388;4.928;2023-03-01T01:57:20;0.50;99.90
14172;DHT22;7165;52.388;4.928;2023-03-01T01:59:50;0.40;99.90
14172;DHT22;7165;52.388;4.928;2023-03-01T02:02:18;0.50;99.90
14172;DHT22;7165;52.388;4.928;2023-03-01T02:04:46;0.50;99.90
14172;DHT22;7165;52.388;4.928;2023-03-01T02:07:16;0.40;99.90
14172;DHT22;7165;52.388;4.928;2023-03-01T02:09:46;0.40;99.90
14172;DHT22;7165;52.388;4.928;2023-03-01T02:12:13;0.40;99.90
14172;DHT22;7165;52.388;4.928;2023-03-01T02:14:42;0.40;99.90
14172;DHT22;7165;52.388;4.928;2023-03-01T02:17:08;0.40;99.90
14172;DHT22;7165;52.388;4.928;2023-03-01T02:19:47;0.40;99.90
14172;DHT22;7165;52.388;4.928;2023-03-01T02:22:22;0.40;99.90
14172;DHT22;7165;52.388;4.928;2023-03-01T02:25:05;0.30;99.90
14172;DHT22;7165;52.388;4.928;2023-03-01T02:27:40;0.30;99.90
14172;DHT22;7165;52.388;4.928;2023-03-01T02:30:12;0.30;99.90
14172;DHT22;7165;52.388;4.928;2023-03-01T02:32:40;0.30;99.90
14172;DHT22;7165;52.388;4.928;2023-03-01T02:35:09;0.30;99.90
14172;DHT22;7165;52.388;4.928;2023-03-01T02:37:36;0.30;99.90
14172;DHT22;7165;52.388;4.928;2023-03-01T02:40:06;0.30;99.90
14172;DHT22;7165;52.388;4.928;2023-03-01T02:42:40;0.30;99.90
14172;DHT22;7165;52.388;4.928;2023-03-01T02:45:09;0.40;99.90
14172;DHT22;7165;52.388;4.928;2023-03-01T02:47:37;0.40;99.90
14172;DHT22;7165;52.388;4.928;2023-03-01T02:50:13;0.30;99.90
14172;DHT22;7165;52.388;4.928;2023-03-01T02:52:46;0.30;99.90
14172;DHT22;7165;52.388;4.928;2023-03-01T02:55:16;0.20;99.90
14172;DHT22;7165;52.388;4.928;2023-03-01T02:57:45;0.20;99.90
14172;DHT22;7165;52.388;4.928;2023-03-01T03:00:14;0.20;99.90
14172;DHT22;7165;52.388;4.928;2023-03-01T03:02:46;0.20;99.90
14172;DHT22;7165;52.388;4.928;2023-03-01T03:05:16;0.20;99.90
14172;DHT22;7165;52.388;4.928;2023-03-01T03:07:44;0.20;99.90
14172;DHT22;7165;52.388;4.928;2023-03-01T03:10:14;0.20;99.90
14172;DHT22;7165;52.388;4.928;2023-03-01T03:12:42;0.20;99.90
14172;DHT22;7165;52.388;4.928;2023-03-01T03:15:10;0.20;99.90
14172;DHT22;7165;52.388;4.928;2023-03-01T03:17:39;0.10;99.90
14172;DHT22;7165;52.388;4.928;2023-03-01T03:20:11;0.10;99.90
14172;DHT22;7165;52.388;4.928;2023-03-01T03:22:38;0.10;99.90
14172;DHT22;7165;52.388;4.928;2023-03-01T03:25:06;0.10;99.90
14172;DHT22;7165;52.388;4.928;2023-03-01T03:27:35;0.00;99.90
14172;DHT22;7165;52.388;4.928;2023-03-01T03:30:04;0.00;99.90
14172;DHT22;7165;52.388;4.928;2023-03-01T03:32:34;0.00;99.90
14172;DHT22;7165;52.388;4.928;2023-03-01T03:35:01;0.00;99.90
14172;DHT22;7165;52.388;4.928;2023-03-01T03:37:29;-0.10;99.90
14172;DHT22;7165;52.388;4.928;2023-03-01T03:40:13;-0.20;99.90
14172;DHT22;7165;52.388;4.928;2023-03-01T03:42:41;-0.20;99.90
14172;DHT22;7165;52.388;4.928;2023-03-01T03:45:08;-0.20;99.90
14172;DHT22;7165;52.388;4.928;2023-03-01T03:47:35;-0.20;99.90
14172;DHT22;7165;52.388;4.928;2023-03-01T03:50:02;-0.20;99.90
14172;DHT22;7165;52.388;4.928;2023-03-01T03:52:30;-0.20;99.90
14172;DHT22;7165;52.388;4.928;2023-03-01T03:54:56;-0.20;99.90
14172;DHT22;7165;52.388;4.928;2023-03-01T03:57:23;-0.20;99.90
14172;DHT22;7165;52.388;4.928;2023-03-01T03:59:50;-0.20;99.90
14172;DHT22;7165;52.388;4.928;2023-03-01T04:02:16;-0.20;99.90
14172;DHT22;7165;52.388;4.928;2023-03-01T04:04:47;-0.20;99.90
14172;DHT22;7165;52.388;4.928;2023-03-01T04:07:15;-0.10;99.90
14172;DHT22;7165;52.388;4.928;2023-03-01T04:09:43;-0.10;99.90
14172;DHT22;7165;52.388;4.928;2023-03-01T04:12:10;-0.10;99.90
14172;DHT22;7165;52.388;4.928;2023-03-01T04:14:37;-0.10;99.90
14172;DHT22;7165;52.388;4.928;2023-03-01T04:17:03;-0.10;99.90
14172;DHT22;7165;52.388;4.928;2023-03-01T04:19:31;-0.10;99.90
14172;DHT22;7165;52.388;4.928;2023-03-01T04:22:01;-0.10;99.90
14172;DHT22;7165;52.388;4.928;2023-03-01T04:24:32;0.00;99.90
14172;DHT22;7165;52.388;4.928;2023-03-01T04:27:01;-0.10;99.90
14172;DHT22;7165;52.388;4.928;2023-03-01T04:29:28;-0.10;99.90
14172;DHT22;7165;52.388;4.928;2023-03-01T04:31:54;-0.10;99.90
14172;DHT22;7165;52.388;4.928;2023-03-01T04:34:21;-0.20;99.90
14172;DHT22;7165;52.388;4.928;2023-03-01T04:36:48;-0.20;99.90
14172;DHT22;7165;52.388;4.928;2023-03-01T04:39:14;-0.30;99.90
14172;DHT22;7165;52.388;4.928;2023-03-01T04:41:41;-0.30;99.90
14172;DHT22;7165;52.388;4.928;2023-03-01T04:44:10;-0.40;99.90
14172;DHT22;7165;52.388;4.928;2023-03-01T04:46:38;-0.40;99.90
14172;DHT22;7165;52.388;4.928;2023-03-01T04:49:05;-0.40;99.90
14172;DHT22;7165;52.388;4.928;2023-03-01T04:51:32;-0.50;99.90
14172;DHT22;7165;52.388;4.928;2023-03-01T04:53:58;-0.50;99.90
14172;DHT22;7165;52.388;4.928;2023-03-01T04:56:25;-0.50;99.90
14172;DHT22;7165;52.388;4.928;2023-03-01T04:58:53;-0.50;99.90
14172;DHT22;7165;52.388;4.928;2023-03-01T05:01:21;-0.40;99.90
14172;DHT22;7165;52.388;4.928;2023-03-01T05:03:50;-0.40;99.90
14172;DHT22;7165;52.388;4.928;2023-03-01T05:06:18;-0.50;99.90
14172;DHT22;7165;52.388;4.928;2023-03-01T05:08:45;-0.50;99.90
14172;DHT22;7165;52.388;4.928;2023-03-01T05:11:12;-0.50;99.90
14172;DHT22;7165;52.388;4.928;2023-03-01T05:13:39;-0.60;99.90
14172;DHT22;7165;52.388;4.928;2023-03-01T05:16:07;-0.60;99.90
14172;DHT22;7165;52.388;4.928;2023-03-01T05:18:38;-0.70;99.90
14172;DHT22;7165;52.388;4.928;2023-03-01T05:21:06;-0.70;99.90
14172;DHT22;7165;52.388;4.928;2023-03-01T05:23:33;-0.70;99.90
14172;DHT22;7165;52.388;4.928;2023-03-01T05:26:03;-0.70;99.90
14172;DHT22;7165;52.388;4.928;2023-03-01T05:28:30;-0.70;99.90
14172;DHT22;7165;52.388;4.928;2023-03-01T05:30:57;-0.60;99.90
14172;DHT22;7165;52.388;4.928;2023-03-01T05:33:25;-0.60;99.90
14172;DHT22;7165;52.388;4.928;2023-03-01T05:35:53;-0.50;99.90
14172;DHT22;7165;52.388;4.928;2023-03-01T05:38:21;-0.50;99.90
14172;DHT22;7165;52.388;4.928;2023-03-01T05:40:48;-0.50;99.90
14172;DHT22;7165;52.388;4.928;2023-03-01T05:43:16;-0.50;99.90
14172;DHT22;7165;52.388;4.928;2023-03-01T05:45:43;-0.60;99.90
14172;DHT22;7165;52.388;4.928;2023-03-01T05:48:10;-0.50;99.90
14172;DHT22;7165;52.388;4.928;2023-03-01T05:50:39;-0.50;99.90
14172;DHT22;7165;52.388;4.928;2023-03-01T05:53:11;-0.50;99.90
14172;DHT22;7165;52.388;4.928;2023-03-01T05:55:39;-0.50;99.90
14172;DHT22;7165;52.388;4.928;2023-03-01T05:58:07;-0.40;99.90
14172;DHT22;7165;52.388;4.928;2023-03-01T06:00:34;-0.40;99.90
14172;DHT22;7165;52.388;4.928;2023-03-01T06:03:01;-0.30;99.90
14172;DHT22;7165;52.388;4.928;2023-03-01T06:05:28;-0.30;99.90
14172;DHT22;7165;52.388;4.928;2023-03-01T06:07:57;-0.30;99.90
14172;DHT22;7165;52.388;4.928;2023-03-01T06:10:26;-0.30;99.90
14172;DHT22;7165;52.388;4.928;2023-03-01T06:12:53;-0.30;99.90
14172;DHT22;7165;52.388;4.928;2023-03-01T06:15:20;-0.30;99.90
14172;DHT22;7165;52.388;4.928;2023-03-01T06:17:47;-0.30;99.90
14172;DHT22;7165;52.388;4.928;2023-03-01T06:20:16;-0.30;99.90
14172;DHT22;7165;52.388;4.928;2023-03-01T06:22:45;-0.30;99.90
14172;DHT22;7165;52.388;4.928;2023-03-01T06:25:13;-0.30;99.90
14172;DHT22;7165;52.388;4.928;2023-03-01T06:27:41;-0.30;99.90
14172;DHT22;7165;52.388;4.928;2023-03-01T06:30:10;-0.30;99.90
14172;DHT22;7165;52.388;4.928;2023-03-01T06:32:38;-0.30;99.90
14172;DHT22;7165;52.388;4.928;2023-03-01T06:35:08;-0.30;99.90
14172;DHT22;7165;52.388;4.928;2023-03-01T06:37:35;-0.30;99.90
14172;DHT22;7165;52.388;4.928;2023-03-01T06:40:02;-0.30;99.90
14172;DHT22;7165;52.388;4.928;2023-03-01T06:42:33;-0.30;99.90
14172;DHT22;7165;52.388;4.928;2023-03-01T06:45:02;-0.30;99.90
14172;DHT22;7165;52.388;4.928;2023-03-01T06:47:28;-0.30;99.90
14172;DHT22;7165;52.388;4.928;2023-03-01T06:49:55;-0.30;99.90
14172;DHT22;7165;52.388;4.928;2023-03-01T06:52:22;-0.20;99.90
14172;DHT22;7165;52.388;4.928;2023-03-01T06:54:48;-0.20;99.90
14172;DHT22;7165;52.388;4.928;2023-03-01T06:57:15;-0.20;99.90
14172;DHT22;7165;52.388;4.928;2023-03-01T06:59:42;-0.20;99.90
14172;DHT22;7165;52.388;4.928;2023-03-01T07:02:11;-0.20;99.90
14172;DHT22;7165;52.388;4.928;2023-03-01T07:04:38;-0.20;99.90
14172;DHT22;7165;52.388;4.928;2023-03-01T07:07:05;-0.10;99.90
14172;DHT22;7165;52.388;4.928;2023-03-01T07:09:32;-0.10;99.90
14172;DHT22;7165;52.388;4.928;2023-03-01T07:11:58;0.00;99.90
14172;DHT22;7165;52.388;4.928;2023-03-01T07:14:25;0.00;99.90
14172;DHT22;7165;52.388;4.928;2023-03-01T07:16:52;0.00;99.90
14172;DHT22;7165;52.388;4.928;2023-03-01T07:19:20;0.00;99.90
14172;DHT22;7165;52.388;4.928;2023-03-01T07:21:47;0.00;99.90
14172;DHT22;7165;52.388;4.928;2023-03-01T07:24:24;0.00;99.90
14172;DHT22;7165;52.388;4.928;2023-03-01T07:26:51;0.10;99.90
14172;DHT22;7165;52.388;4.928;2023-03-01T07:29:18;0.10;99.90
14172;DHT22;7165;52.388;4.928;2023-03-01T07:31:45;0.10;99.90
14172;DHT22;7165;52.388;4.928;2023-03-01T07:34:12;0.20;99.90
14172;DHT22;7165;52.388;4.928;2023-03-01T07:36:40;0.20;99.90
14172;DHT22;7165;52.388;4.928;2023-03-01T07:39:09;0.30;99.90
14172;DHT22;7165;52.388;4.928;2023-03-01T07:41:36;0.40;99.90
14172;DHT22;7165;52.388;4.928;2023-03-01T07:44:02;0.40;99.90
14172;DHT22;7165;52.388;4.928;2023-03-01T07:46:29;0.40;99.90
14172;DHT22;7165;52.388;4.928;2023-03-01T07:48:56;0.50;99.90
14172;DHT22;7165;52.388;4.928;2023-03-01T07:51:23;0.50;99.90
14172;DHT22;7165;52.388;4.928;2023-03-01T07:53:51;0.60;99.90
14172;DHT22;7165;52.388;4.928;2023-03-01T07:56:18;0.60;99.90
14172;DHT22;7165;52.388;4.928;2023-03-01T07:58:46;0.70;99.90
14172;DHT22;7165;52.388;4.928;2023-03-01T08:01:15;0.70;99.90
14172;DHT22;7165;52.388;4.928;2023-03-01T08:03:42;0.80;99.90
14172;DHT22;7165;52.388;4.928;2023-03-01T08:06:12;0.90;99.90
14172;DHT22;7165;52.388;4.928;2023-03-01T08:08:39;1.00;99.90
14172;DHT22;7165;52.388;4.928;2023-03-01T08:11:09;1.10;99.90
14172;DHT22;7165;52.388;4.928;2023-03-01T08:13:36;1.20;99.90
14172;DHT22;7165;52.388;4.928;2023-03-01T08:16:04;1.30;99.90
14172;DHT22;7165;52.388;4.928;2023-03-01T08:18:31;1.40;99.90
14172;DHT22;7165;52.388;4.928;2023-03-01T08:21:01;1.40;99.90
14172;DHT22;7165;52.388;4.928;2023-03-01T08:23:28;1.50;99.90
14172;DHT22;7165;52.388;4.928;2023-03-01T08:25:55;1.60;99.90
14172;DHT22;7165;52.388;4.928;2023-03-01T08:28:31;1.70;99.90
14172;DHT22;7165;52.388;4.928;2023-03-01T08:30:58;1.70;99.90
14172;DHT22;7165;52.388;4.928;2023-03-01T08:33:24;1.80;99.90
14172;DHT22;7165;52.388;4.928;2023-03-01T08:35:51;1.80;99.90
14172;DHT22;7165;52.388;4.928;2023-03-01T08:38:18;1.90;99.90
14172;DHT22;7165;52.388;4.928;2023-03-01T08:40:44;2.00;99.90
14172;DHT22;7165;52.388;4.928;2023-03-01T08:43:11;2.00;99.90
14172;DHT22;7165;52.388;4.928;2023-03-01T08:45:39;2.20;99.90
14172;DHT22;7165;52.388;4.928;2023-03-01T08:48:05;2.30;99.90
14172;DHT22;7165;52.388;4.928;2023-03-01T08:50:32;2.40;99.90
14172;DHT22;7165;52.388;4.928;2023-03-01T08:52:59;2.50;99.90
14172;DHT22;7165;52.388;4.928;2023-03-01T08:55:25;2.60;99.90
14172;DHT22;7165;52.388;4.928;2023-03-01T08:57:52;2.60;99.90
14172;DHT22;7165;52.388;4.928;2023-03-01T09:00:19;2.60;99.90
14172;DHT22;7165;52.388;4.928;2023-03-01T09:02:47;2.70;99.90
14172;DHT22;7165;52.388;4.928;2023-03-01T09:05:14;2.70;99.90
14172;DHT22;7165;52.388;4.928;2023-03-01T09:07:41;2.60;99.90
14172;DHT22;7165;52.388;4.928;2023-03-01T09:10:09;2.60;99.90
14172;DHT22;7165;52.388;4.928;2023-03-01T09:12:36;2.70;99.90
14172;DHT22;7165;52.388;4.928;2023-03-01T09:15:03;2.80;99.90
14172;DHT22;7165;52.388;4.928;2023-03-01T09:17:30;2.90;99.90
14172;DHT22;7165;52.388;4.928;2023-03-01T09:19:58;3.00;99.90
14172;DHT22;7165;52.388;4.928;2023-03-01T09:22:25;3.00;99.90
14172;DHT22;7165;52.388;4.928;2023-03-01T09:24:51;3.10;99.90
14172;DHT22;7165;52.388;4.928;2023-03-01T09:27:18;3.10;99.90
14172;DHT22;7165;52.388;4.928;2023-03-01T09:29:45;3.20;99.90
14172;DHT22;7165;52.388;4.928;2023-03-01T09:32:12;3.30;99.90
14172;DHT22;7165;52.388;4.928;2023-03-01T09:34:39;3.30;99.90
14172;DHT22;7165;52.388;4.928;2023-03-01T09:37:21;3.40;99.90
14172;DHT22;7165;52.388;4.928;2023-03-01T09:39:48;3.40;99.90
14172;DHT22;7165;52.388;4.928;2023-03-01T09:42:15;3.50;99.90
14172;DHT22;7165;52.388;4.928;2023-03-01T09:44:47;3.50;99.90
14172;DHT22;7165;52.388;4.928;2023-03-01T09:47:18;3.60;99.90
14172;DHT22;7165;52.388;4.928;2023-03-01T09:49:49;3.60;99.90
14172;DHT22;7165;52.388;4.928;2023-03-01T09:52:25;3.50;99.90
14172;DHT22;7165;52.388;4.928;2023-03-01T09:54:55;3.40;99.90
14172;DHT22;7165;52.388;4.928;2023-03-01T09:57:28;3.50;99.90
14172;DHT22;7165;52.388;4.928;2023-03-01T10:00:07;3.50;99.90
14172;DHT22;7165;52.388;4.928;2023-03-01T10:02:40;3.60;99.90
14172;DHT22;7165;52.388;4.928;2023-03-01T10:05:21;3.70;99.90
14172;DHT22;7165;52.388;4.928;2023-03-01T10:08:01;3.70;99.90
14172;DHT22;7165;52.388;4.928;2023-03-01T10:10:33;3.70;99.90
14172;DHT22;7165;52.388;4.928;2023-03-01T10:13:07;3.80;99.90
14172;DHT22;7165;52.388;4.928;2023-03-01T10:15:41;3.80;99.90
14172;DHT22;7165;52.388;4.928;2023-03-01T10:18:13;4.00;99.90
14172;DHT22;7165;52.388;4.928;2023-03-01T10:20:46;4.20;99.90
14172;DHT22;7165;52.388;4.928;2023-03-01T10:23:14;4.30;99.90
14172;DHT22;7165;52.388;4.928;2023-03-01T10:25:52;4.50;99.90
14172;DHT22;7165;52.388;4.928;2023-03-01T10:28:27;4.70;99.90
14172;DHT22;7165;52.388;4.928;2023-03-01T10:30:56;4.90;99.90
14172;DHT22;7165;52.388;4.928;2023-03-01T10:33:26;5.10;99.90
14172;DHT22;7165;52.388;4.928;2023-03-01T10:35:53;5.20;99.90
14172;DHT22;7165;52.388;4.928;2023-03-01T10:38:22;5.40;99.90
14172;DHT22;7165;52.388;4.928;2023-03-01T10:40:52;5.50;99.90
14172;DHT22;7165;52.388;4.928;2023-03-01T10:43:20;5.70;99.90
14172;DHT22;7165;52.388;4.928;2023-03-01T10:45:47;5.90;99.90
14172;DHT22;7165;52.388;4.928;2023-03-01T10:48:16;6.10;99.90
14172;DHT22;7165;52.388;4.928;2023-03-01T10:50:45;6.20;99.90
14172;DHT22;7165;52.388;4.928;2023-03-01T10:53:19;6.40;99.90
14172;DHT22;7165;52.388;4.928;2023-03-01T10:55:56;6.50;99.90
14172;DHT22;7165;52.388;4.928;2023-03-01T10:58:24;6.70;99.90
14172;DHT22;7165;52.388;4.928;2023-03-01T11:00:52;6.80;99.90
14172;DHT22;7165;52.388;4.928;2023-03-01T11:03:22;6.80;99.90
14172;DHT22;7165;52.388;4.928;2023-03-01T11:06:04;7.00;99.90
14172;DHT22;7165;52.388;4.928;2023-03-01T11:08:36;7.00;99.90
14172;DHT22;7165;52.388;4.928;2023-03-01T11:11:32;7.10;99.90
14172;DHT22;7165;52.388;4.928;2023-03-01T11:14:01;7.20;99.90
14172;DHT22;7165;52.388;4.928;2023-03-01T11:16:33;7.30;99.90
14172;DHT22;7165;52.388;4.928;2023-03-01T11:19:14;7.40;99.90
14172;DHT22;7165;52.388;4.928;2023-03-01T11:21:43;7.40;99.90
14172;DHT22;7165;52.388;4.928;2023-03-01T11:24:12;7.50;99.90
14172;DHT22;7165;52.388;4.928;2023-03-01T11:26:45;7.60;99.90
14172;DHT22;7165;52.388;4.928;2023-03-01T11:29:26;7.60;99.90
14172;DHT22;7165;52.388;4.928;2023-03-01T11:31:53;7.70;99.90
14172;DHT22;7165;52.388;4.928;2023-03-01T11:37:28;7.80;99.90
14172;DHT22;7165;52.388;4.928;2023-03-01T11:39:58;7.90;99.90
14172;DHT22;7165;52.388;4.928;2023-03-01T11:42:29;7.90;99.90
14172;DHT22;7165;52.388;4.928;2023-03-01T11:45:01;7.80;99.90
14172;DHT22;7165;52.388;4.928;2023-03-01T11:47:33;7.80;99.90
14172;DHT22;7165;52.388;4.928;2023-03-01T11:50:09;8.00;99.90
14172;DHT22;7165;52.388;4.928;2023-03-01T11:52:47;8.20;99.90
14172;DHT22;7165;52.388;4.928;2023-03-01T11:55:24;8.40;99.90
14172;DHT22;7165;52.388;4.928;2023-03-01T11:58:08;8.50;99.90
14172;DHT22;7165;52.388;4.928;2023-03-01T12:00:53;8.60;99.90
14172;DHT22;7165;52.388;4.928;2023-03-01T12:03:30;8.40;99.90
14172;DHT22;7165;52.388;4.928;2023-03-01T12:06:20;8.40;99.90
14172;DHT22;7165;52.388;4.928;2023-03-01T12:08:55;8.20;99.90
14172;DHT22;7165;52.388;4.928;2023-03-01T12:11:39;8.20;99.90
14172;DHT22;7165;52.388;4.928;2023-03-01T12:14:28;8.30;99.90
14172;DHT22;7165;52.388;4.928;2023-03-01T12:20:12;8.50;99.90
14172;DHT22;7165;52.388;4.928;2023-03-01T12:22:48;8.30;99.90
14172;DHT22;7165;52.388;4.928;2023-03-01T12:25:27;8.30;99.90
14172;DHT22;7165;52.388;4.928;2023-03-01T12:30:55;8.70;99.90
14172;DHT22;7165;52.388;4.928;2023-03-01T12:33:27;9.00;99.90
14172;DHT22;7165;52.388;4.928;2023-03-01T12:36:02;9.00;99.90
14172;DHT22;7165;52.388;4.928;2023-03-01T12:38:32;9.00;99.90
14172;DHT22;7165;52.388;4.928;2023-03-01T12:41:06;9.10;99.90
14172;DHT22;7165;52.388;4.928;2023-03-01T12:43:41;9.20;99.90
14172;DHT22;7165;52.388;4.928;2023-03-01T12:46:14;9.20;99.90
14172;DHT22;7165;52.388;4.928;2023-03-01T12:48:47;9.20;99.90
14172;DHT22;7165;52.388;4.928;2023-03-01T12:51:18;9.10;99.90
14172;DHT22;7165;52.388;4.928;2023-03-01T12:53:46;9.20;99.90
14172;DHT22;7165;52.388;4.928;2023-03-01T12:56:14;9.20;99.90
14172;DHT22;7165;52.388;4.928;2023-03-01T12:58:45;9.20;99.90
14172;DHT22;7165;52.388;4.928;2023-03-01T13:01:19;9.10;99.90
14172;DHT22;7165;52.388;4.928;2023-03-01T13:03:57;9.10;99.90
14172;DHT22;7165;52.388;4.928;2023-03-01T13:06:29;9.00;99.90
14172;DHT22;7165;52.388;4.928;2023-03-01T13:08:58;9.00;99.90
14172;DHT22;7165;52.388;4.928;2023-03-01T13:11:28;9.10;99.90
14172;DHT22;7165;52.388;4.928;2023-03-01T13:14:09;9.20;99.90
14172;DHT22;7165;52.388;4.928;2023-03-01T13:16:57;9.00;99.90
14172;DHT22;7165;52.388;4.928;2023-03-01T13:19:24;8.90;99.90
14172;DHT22;7165;52.388;4.928;2023-03-01T13:21:52;8.90;99.90
14172;DHT22;7165;52.388;4.928;2023-03-01T13:24:26;8.90;99.90
14172;DHT22;7165;52.388;4.928;2023-03-01T13:27:09;9.00;99.90
14172;DHT22;7165;52.388;4.928;2023-03-01T13:29:43;8.90;99.90
14172;DHT22;7165;52.388;4.928;2023-03-01T13:32:20;8.90;99.90
14172;DHT22;7165;52.388;4.928;2023-03-01T13:34:51;9.00;99.90
14172;DHT22;7165;52.388;4.928;2023-03-01T13:37:18;9.00;99.90
14172;DHT22;7165;52.388;4.928;2023-03-01T13:39:45;8.90;99.90
14172;DHT22;7165;52.388;4.928;2023-03-01T13:42:29;8.80;99.90
14172;DHT22;7165;52.388;4.928;2023-03-01T13:44:56;8.80;99.90
14172;DHT22;7165;52.388;4.928;2023-03-01T13:47:24;8.80;99.90
14172;DHT22;7165;52.388;4.928;2023-03-01T13:49:52;8.80;99.90
14172;DHT22;7165;52.388;4.928;2023-03-01T13:52:24;9.10;99.90
14172;DHT22;7165;52.388;4.928;2023-03-01T13:54:55;9.20;99.90
14172;DHT22;7165;52.388;4.928;2023-03-01T13:57:24;9.20;99.90
14172;DHT22;7165;52.388;4.928;2023-03-01T13:59:52;9.10;99.90
14172;DHT22;7165;52.388;4.928;2023-03-01T14:02:18;9.10;99.90
14172;DHT22;7165;52.388;4.928;2023-03-01T14:04:56;9.30;99.90
14172;DHT22;7165;52.388;4.928;2023-03-01T14:07:23;9.40;99.90
14172;DHT22;7165;52.388;4.928;2023-03-01T14:09:53;9.40;99.90
14172;DHT22;7165;52.388;4.928;2023-03-01T14:12:36;9.30;99.90
14172;DHT22;7165;52.388;4.928;2023-03-01T14:15:10;9.30;99.90
14172;DHT22;7165;52.388;4.928;2023-03-01T14:17:49;9.30;99.90
14172;DHT22;7165;52.388;4.928;2023-03-01T14:20:20;9.30;99.90
14172;DHT22;7165;52.388;4.928;2023-03-01T14:22:48;9.40;99.90
14172;DHT22;7165;52.388;4.928;2023-03-01T14:25:22;9.50;99.90
14172;DHT22;7165;52.388;4.928;2023-03-01T14:27:56;9.70;99.90
14172;DHT22;7165;52.388;4.928;2023-03-01T14:30:24;9.80;99.90
14172;DHT22;7165;52.388;4.928;2023-03-01T14:32:52;9.90;99.90
14172;DHT22;7165;52.388;4.928;2023-03-01T14:35:22;10.00;99.90
14172;DHT22;7165;52.388;4.928;2023-03-01T14:37:49;10.00;99.90
14172;DHT22;7165;52.388;4.928;2023-03-01T14:40:22;10.10;99.90
14172;DHT22;7165;52.388;4.928;2023-03-01T14:42:49;10.20;99.90
14172;DHT22;7165;52.388;4.928;2023-03-01T14:45:16;10.20;99.90
14172;DHT22;7165;52.388;4.928;2023-03-01T14:47:44;10.10;99.90
14172;DHT22;7165;52.388;4.928;2023-03-01T14:50:21;10.00;99.90
14172;DHT22;7165;52.388;4.928;2023-03-01T14:52:51;10.00;99.90
14172;DHT22;7165;52.388;4.928;2023-03-01T14:55:19;9.80;99.90
14172;DHT22;7165;52.388;4.928;2023-03-01T14:57:48;9.70;99.90
14172;DHT22;7165;52.388;4.928;2023-03-01T15:00:18;9.70;99.90
14172;DHT22;7165;52.388;4.928;2023-03-01T15:02:47;9.80;99.90
14172;DHT22;7165;52.388;4.928;2023-03-01T15:05:15;9.80;99.90
14172;DHT22;7165;52.388;4.928;2023-03-01T15:07:46;9.60;99.90
14172;DHT22;7165;52.388;4.928;2023-03-01T15:10:17;9.60;99.90
14172;DHT22;7165;52.388;4.928;2023-03-01T15:12:45;9.60;99.90
14172;DHT22;7165;52.388;4.928;2023-03-01T15:15:33;9.60;99.90
14172;DHT22;7165;52.388;4.928;2023-03-01T15:18:02;9.70;99.90
14172;DHT22;7165;52.388;4.928;2023-03-01T15:20:30;9.70;99.90
14172;DHT22;7165;52.388;4.928;2023-03-01T15:23:03;9.60;99.90
14172;DHT22;7165;52.388;4.928;2023-03-01T15:25:32;9.50;99.90
14172;DHT22;7165;52.388;4.928;2023-03-01T15:28:00;9.40;99.90
14172;DHT22;7165;52.388;4.928;2023-03-01T15:30:30;9.40;99.90
14172;DHT22;7165;52.388;4.928;2023-03-01T15:33:27;9.30;99.90
14172;DHT22;7165;52.388;4.928;2023-03-01T15:35:57;9.20;99.90
14172;DHT22;7165;52.388;4.928;2023-03-01T15:38:31;9.10;99.90
14172;DHT22;7165;52.388;4.928;2023-03-01T15:40:59;9.00;99.90
14172;DHT22;7165;52.388;4.928;2023-03-01T15:43:38;9.00;99.90
14172;DHT22;7165;52.388;4.928;2023-03-01T15:46:19;8.90;99.90
14172;DHT22;7165;52.388;4.928;2023-03-01T15:48:48;8.80;99.90
14172;DHT22;7165;52.388;4.928;2023-03-01T15:51:18;8.90;99.90
14172;DHT22;7165;52.388;4.928;2023-03-01T15:53:50;8.90;99.90
14172;DHT22;7165;52.388;4.928;2023-03-01T15:56:17;8.90;99.90
14172;DHT22;7165;52.388;4.928;2023-03-01T15:58:44;8.90;99.90
14172;DHT22;7165;52.388;4.928;2023-03-01T16:01:13;8.90;99.90
14172;DHT22;7165;52.388;4.928;2023-03-01T16:03:40;8.90;99.90
14172;DHT22;7165;52.388;4.928;2023-03-01T16:06:09;8.90;99.90
14172;DHT22;7165;52.388;4.928;2023-03-01T16:08:36;8.80;99.90
14172;DHT22;7165;52.388;4.928;2023-03-01T16:11:09;8.80;99.90
14172;DHT22;7165;52.388;4.928;2023-03-01T16:13:37;8.70;99.90
14172;DHT22;7165;52.388;4.928;2023-03-01T16:16:04;8.50;99.90
14172;DHT22;7165;52.388;4.928;2023-03-01T16:18:31;8.40;99.90
14172;DHT22;7165;52.388;4.928;2023-03-01T16:20:58;8.20;99.90
14172;DHT22;7165;52.388;4.928;2023-03-01T16:23:24;8.10;99.90